sensor_id;sensor_type;location;lat;lon;timestamp;pressure;altitude;pressure_sealevel;temperature;humidity
39275;BME280;24980;48.874;2.332;2023-02-21T00:02:05;101807.58;;;25.26;39.18
39275;BME280;24980;48.874;2.332;2023-02-21T00:04:34;101808.44;;;25.25;39.26
39275;BME280;24980;48.874;2.332;2023-02-21T00:07:10;101807.84;;;25.25;39.32
39275;BME280;24980;48.874;2.332;2023-02-21T00:09:38;101810.98;;;25.26;39.40
39275;BME280;24980;48.874;2.332;2023-02-21T00:12:07;101813.78;;;25.25;39.48
39275;BME280;24980;48.874;2.332;2023-02-21T00:14:38;101815.05;;;25.26;39.54
39275;BME280;24980;48.874;2.332;2023-02-21T00:17:07;101816.06;;;25.27;39.59
39275;BME280;24980;48.874;2.332;2023-02-21T00:19:39;101817.59;;;25.26;39.61
39275;BME280;24980;48.874;2.332;2023-02-21T00:22:10;101811.31;;;25.26;39.63
39275;BME280;24980;48.874;2.332;2023-02-21T00:24:39;101811.73;;;25.26;39.68
39275;BME280;24980;48.874;2.332;2023-02-21T00:27:14;101806.48;;;25.26;39.70
39275;BME280;24980;48.874;2.332;2023-02-21T00:29:40;101801.81;;;25.26;39.72
39275;BME280;24980;48.874;2.332;2023-02-21T00:32:11;101798.33;;;25.26;39.74
39275;BME280;24980;48.874;2.332;2023-02-21T00:34:42;101796.55;;;25.26;39.74
39275;BME280;24980;48.874;2.332;2023-02-21T00:37:14;101795.45;;;25.26;39.75
39275;BME280;24980;48.874;2.332;2023-02-21T00:39:43;101790.95;;;25.26;39.78
39275;BME280;24980;48.874;2.332;2023-02-21T00:42:16;101787.56;;;25.25;39.81
39275;BME280;24980;48.874;2.332;2023-02-21T00:44:44;101782.55;;;25.25;39.87
39275;BME280;24980;48.874;2.332;2023-02-21T00:47:16;101776.53;;;25.26;39.93
39275;BME280;24980;48.874;2.332;2023-02-21T00:49:46;101771.77;;;25.26;40.01
39275;BME280;24980;48.874;2.332;2023-02-21T00:52:18;101766.05;;;25.27;40.09
39275;BME280;24980;48.874;2.332;2023-02-21T00:54:47;101761.12;;;25.28;40.16
39275;BME280;24980;48.874;2.332;2023-02-21T00:57:18;101751.79;;;25.30;40.23
39275;BME280;24980;48.874;2.332;2023-02-21T00:59:48;101749.92;;;25.30;40.28
39275;BME280;24980;48.874;2.332;2023-02-21T01:02:18;101748.95;;;25.31;40.33
39275;BME280;24980;48.874;2.332;2023-02-21T01:04:49;101747.42;;;25.31;40.36
39275;BME280;24980;48.874;2.332;2023-02-21T01:07:20;101746.23;;;25.32;40.41
39275;BME280;24980;48.874;2.332;2023-02-21T01:09:49;101744.45;;;25.31;40.45
39275;BME280;24980;48.874;2.332;2023-02-21T01:12:19;101742.08;;;25.31;40.49
39275;BME280;24980;48.874;2.332;2023-02-21T01:14:51;101745.39;;;25.32;40.51
39275;BME280;24980;48.874;2.332;2023-02-21T01:17:22;101746.49;;;25.31;40.53
39275;BME280;24980;48.874;2.332;2023-02-21T01:19:54;101748.78;;;25.32;40.55
39275;BME280;24980;48.874;2.332;2023-02-21T01:22:25;101744.45;;;25.31;40.58
39275;BME280;24980;48.874;2.332;2023-02-21T01:24:53;101747.17;;;25.31;40.60
39275;BME280;24980;48.874;2.332;2023-02-21T01:27:23;101739.70;;;25.32;40.61
39275;BME280;24980;48.874;2.332;2023-02-21T01:29:58;101734.95;;;25.32;40.62
39275;BME280;24980;48.874;2.332;2023-02-21T01:32:25;101730.11;;;25.32;40.65
39275;BME280;24980;48.874;2.332;2023-02-21T01:34:55;101729.52;;;25.33;40.67
39275;BME280;24980;48.874;2.332;2023-02-21T01:37:26;101728.12;;;25.33;40.68
39275;BME280;24980;48.874;2.332;2023-02-21T01:39:56;101727.36;;;25.35;40.69
39275;BME280;24980;48.874;2.332;2023-02-21T01:42:26;101724.64;;;25.36;40.71
39275;BME280;24980;48.874;2.332;2023-02-21T01:47:28;101718.27;;;25.35;40.75
39275;BME280;24980;48.874;2.332;2023-02-21T01:50:00;101720.05;;;25.35;40.79
39275;BME280;24980;48.874;2.332;2023-02-21T01:52:36;101713.69;;;25.36;40.82
39275;BME280;24980;48.874;2.332;2023-02-21T01:54:59;101713.02;;;25.36;40.86
39275;BME280;24980;48.874;2.332;2023-02-21T01:57:30;101713.65;;;25.38;40.90
39275;BME280;24980;48.874;2.332;2023-02-21T02:00:07;101710.25;;;25.39;40.90
39275;BME280;24980;48.874;2.332;2023-02-21T02:02:37;101712.45;;;25.39;40.89
39275;BME280;24980;48.874;2.332;2023-02-21T02:05:03;101718.45;;;25.40;40.90
39275;BME280;24980;48.874;2.332;2023-02-21T02:07:33;101718.45;;;25.40;40.92
39275;BME280;24980;48.874;2.332;2023-02-21T02:10:02;101713.44;;;25.40;40.95
39275;BME280;24980;48.874;2.332;2023-02-21T02:15:22;101703.84;;;25.41;40.99
39275;BME280;24980;48.874;2.332;2023-02-21T02:18:02;101705.71;;;25.41;40.99
39275;BME280;24980;48.874;2.332;2023-02-21T02:27:54;101692.76;;;25.46;41.10
39275;BME280;24980;48.874;2.332;2023-02-21T02:33:12;101689.03;;;25.45;41.09
39275;BME280;24980;48.874;2.332;2023-02-21T02:35:27;101689.62;;;25.44;41.06
39275;BME280;24980;48.874;2.332;2023-02-21T02:38:05;101683.01;;;25.43;41.06
39275;BME280;24980;48.874;2.332;2023-02-21T02:40:42;101679.52;;;25.44;41.05
39275;BME280;24980;48.874;2.332;2023-02-21T02:43:02;101672.82;;;25.43;41.04
39275;BME280;24980;48.874;2.332;2023-02-21T02:45:22;101673.08;;;25.43;41.03
39275;BME280;24980;48.874;2.332;2023-02-21T02:47:44;101676.39;;;25.43;41.02
39275;BME280;24980;48.874;2.332;2023-02-21T02:50:16;101672.91;;;25.43;41.01
39275;BME280;24980;48.874;2.332;2023-02-21T02:52:50;101670.95;;;25.43;40.99
39275;BME280;24980;48.874;2.332;2023-02-21T02:55:24;101668.36;;;25.42;41.00
39275;BME280;24980;48.874;2.332;2023-02-21T02:57:45;101668.11;;;25.42;41.00
39275;BME280;24980;48.874;2.332;2023-02-21T03:03:08;101664.47;;;25.41;41.02
39275;BME280;24980;48.874;2.332;2023-02-21T03:05:41;101663.95;;;25.42;41.02
39275;BME280;24980;48.874;2.332;2023-02-21T03:10:30;101658.78;;;25.41;41.02
39275;BME280;24980;48.874;2.332;2023-02-21T03:15:21;101652.58;;;25.41;41.05
39275;BME280;24980;48.874;2.332;2023-02-21T03:18:03;101648.00;;;25.40;41.06
39275;BME280;24980;48.874;2.332;2023-02-21T03:20:19;101646.85;;;25.39;41.06
39275;BME280;24980;48.874;2.332;2023-02-21T03:22:50;101653.98;;;25.39;41.07
39275;BME280;24980;48.874;2.332;2023-02-21T03:25:21;101654.75;;;25.39;41.08
39275;BME280;24980;48.874;2.332;2023-02-21T03:27:52;101653.95;;;25.40;41.10
39275;BME280;24980;48.874;2.332;2023-02-21T03:30:21;101650.38;;;25.40;41.13
39275;BME280;24980;48.874;2.332;2023-02-21T03:32:54;101644.90;;;25.39;41.14
39275;BME280;24980;48.874;2.332;2023-02-21T03:35:21;101643.20;;;25.39;41.16
39275;BME280;24980;48.874;2.332;2023-02-21T03:37:54;101641.84;;;25.39;41.18
39275;BME280;24980;48.874;2.332;2023-02-21T03:40:29;101642.52;;;25.39;41.19
39275;BME280;24980;48.874;2.332;2023-02-21T03:42:55;101641.93;;;25.39;41.21
39275;BME280;24980;48.874;2.332;2023-02-21T03:45:24;101641.34;;;25.39;41.22
39275;BME280;24980;48.874;2.332;2023-02-21T03:47:55;101636.67;;;25.39;41.23
39275;BME280;24980;48.874;2.332;2023-02-21T03:50:26;101637.27;;;25.39;41.25
39275;BME280;24980;48.874;2.332;2023-02-21T03:52:56;101633.70;;;25.39;41.25
39275;BME280;24980;48.874;2.332;2023-02-21T03:55:28;101630.81;;;25.39;41.26
39275;BME280;24980;48.874;2.332;2023-02-21T03:57:58;101627.51;;;25.38;41.27
39275;BME280;24980;48.874;2.332;2023-02-21T04:00:27;101624.95;;;25.39;41.29
39275;BME280;24980;48.874;2.332;2023-02-21T04:02:58;101624.02;;;25.39;41.29
39275;BME280;24980;48.874;2.332;2023-02-21T04:05:34;101620.80;;;25.38;41.29
39275;BME280;24980;48.874;2.332;2023-02-21T04:07:59;101617.24;;;25.37;41.32
39275;BME280;24980;48.874;2.332;2023-02-21T04:10:30;101612.32;;;25.37;41.32
39275;BME280;24980;48.874;2.332;2023-02-21T04:13:04;101615.97;;;25.38;41.33
39275;BME280;24980;48.874;2.332;2023-02-21T04:15:31;101611.81;;;25.38;41.34
39275;BME280;24980;48.874;2.332;2023-02-21T04:18:04;101613.51;;;25.37;41.34
39275;BME280;24980;48.874;2.332;2023-02-21T04:20:34;101612.23;;;25.38;41.35
39275;BME280;24980;48.874;2.332;2023-02-21T04:23:04;101616.30;;;25.38;41.35
39275;BME280;24980;48.874;2.332;2023-02-21T04:25:35;101615.38;;;25.38;41.36
39275;BME280;24980;48.874;2.332;2023-02-21T04:28:04;101620.80;;;25.38;41.36
39275;BME280;24980;48.874;2.332;2023-02-21T04:30:33;101625.30;;;25.39;41.40
39275;BME280;24980;48.874;2.332;2023-02-21T04:33:04;101631.03;;;25.40;41.44
39275;BME280;24980;48.874;2.332;2023-02-21T04:35:34;101625.93;;;25.41;41.48
39275;BME280;24980;48.874;2.332;2023-02-21T04:38:04;101621.56;;;25.43;41.50
39275;BME280;24980;48.874;2.332;2023-02-21T04:40:35;101623.25;;;25.44;41.53
39275;BME280;24980;48.874;2.332;2023-02-21T04:43:05;101620.48;;;25.47;41.54
39275;BME280;24980;48.874;2.332;2023-02-21T04:45:41;101621.23;;;25.50;41.54
39275;BME280;24980;48.874;2.332;2023-02-21T04:48:06;101619.36;;;25.50;41.54
39275;BME280;24980;48.874;2.332;2023-02-21T04:50:36;101622.59;;;25.50;41.55
39275;BME280;24980;48.874;2.332;2023-02-21T04:53:07;101621.98;;;25.52;41.56
39275;BME280;24980;48.874;2.332;2023-02-21T04:55:37;101623.22;;;25.53;41.54
39275;BME280;24980;48.874;2.332;2023-02-21T04:58:08;101619.22;;;25.55;41.51
39275;BME280;24980;48.874;2.332;2023-02-21T05:00:38;101622.41;;;25.56;41.49
39275;BME280;24980;48.874;2.332;2023-02-21T05:03:08;101625.28;;;25.58;41.48
39275;BME280;24980;48.874;2.332;2023-02-21T05:05:39;101624.02;;;25.57;41.48
39275;BME280;24980;48.874;2.332;2023-02-21T05:08:09;101620.70;;;25.58;41.48
39275;BME280;24980;48.874;2.332;2023-02-21T05:10:40;101623.16;;;25.57;41.49
39275;BME280;24980;48.874;2.332;2023-02-21T05:13:11;101622.23;;;25.58;41.49
39275;BME280;24980;48.874;2.332;2023-02-21T05:15:42;101620.45;;;25.57;41.49
39275;BME280;24980;48.874;2.332;2023-02-21T05:18:12;101621.54;;;25.59;41.49
39275;BME280;24980;48.874;2.332;2023-02-21T05:20:47;101624.34;;;25.59;41.50
39275;BME280;24980;48.874;2.332;2023-02-21T05:23:13;101624.73;;;25.59;41.50
39275;BME280;24980;48.874;2.332;2023-02-21T05:25:44;101619.72;;;25.59;41.51
39275;BME280;24980;48.874;2.332;2023-02-21T05:28:14;101620.44;;;25.58;41.52
39275;BME280;24980;48.874;2.332;2023-02-21T05:30:44;101619.51;;;25.58;41.52
39275;BME280;24980;48.874;2.332;2023-02-21T05:33:15;101621.72;;;25.58;41.53
39275;BME280;24980;48.874;2.332;2023-02-21T05:35:45;101614.92;;;25.58;41.54
39275;BME280;24980;48.874;2.332;2023-02-21T05:38:16;101608.47;;;25.58;41.54
39275;BME280;24980;48.874;2.332;2023-02-21T05:40:46;101606.65;;;25.59;41.54
39275;BME280;24980;48.874;2.332;2023-02-21T05:43:17;101603.58;;;25.60;41.53
39275;BME280;24980;48.874;2.332;2023-02-21T05:45:47;101603.58;;;25.61;41.53
39275;BME280;24980;48.874;2.332;2023-02-21T05:48:19;101600.44;;;25.62;41.54
39275;BME280;24980;48.874;2.332;2023-02-21T05:50:48;101594.49;;;25.62;41.55
39275;BME280;24980;48.874;2.332;2023-02-21T05:53:18;101587.02;;;25.62;41.60
39275;BME280;24980;48.874;2.332;2023-02-21T05:55:51;101579.42;;;25.62;41.58
39275;BME280;24980;48.874;2.332;2023-02-21T05:58:20;101574.92;;;25.64;41.58
39275;BME280;24980;48.874;2.332;2023-02-21T06:00:50;101576.02;;;25.64;41.57
39275;BME280;24980;48.874;2.332;2023-02-21T06:03:21;101574.62;;;25.65;41.57
39275;BME280;24980;48.874;2.332;2023-02-21T06:05:52;101575.12;;;25.66;41.58
39275;BME280;24980;48.874;2.332;2023-02-21T06:08:25;101575.72;;;25.67;41.58
39275;BME280;24980;48.874;2.332;2023-02-21T06:10:56;101572.15;;;25.67;41.59
39275;BME280;24980;48.874;2.332;2023-02-21T06:13:25;101575.80;;;25.67;41.60
39275;BME280;24980;48.874;2.332;2023-02-21T06:15:54;101570.19;;;25.68;41.62
39275;BME280;24980;48.874;2.332;2023-02-21T06:18:26;101563.95;;;25.69;41.62
39275;BME280;24980;48.874;2.332;2023-02-21T06:20:55;101564.80;;;25.69;41.63
39275;BME280;24980;48.874;2.332;2023-02-21T06:23:26;101567.00;;;25.70;41.63
39275;BME280;24980;48.874;2.332;2023-02-21T06:25:58;101565.21;;;25.71;41.63
39275;BME280;24980;48.874;2.332;2023-02-21T06:28:29;101563.85;;;25.71;41.64
39275;BME280;24980;48.874;2.332;2023-02-21T06:30:58;101560.80;;;25.71;41.65
39275;BME280;24980;48.874;2.332;2023-02-21T06:33:29;101555.36;;;25.71;41.67
39275;BME280;24980;48.874;2.332;2023-02-21T06:36:04;101552.22;;;25.71;41.69
39275;BME280;24980;48.874;2.332;2023-02-21T06:38:30;101547.17;;;25.72;41.70
39275;BME280;24980;48.874;2.332;2023-02-21T06:41:04;101544.11;;;25.73;41.70
39275;BME280;24980;48.874;2.332;2023-02-21T06:43:32;101542.33;;;25.72;41.71
39275;BME280;24980;48.874;2.332;2023-02-21T06:46:02;101539.27;;;25.73;41.73
39275;BME280;24980;48.874;2.332;2023-02-21T06:48:33;101540.20;;;25.72;41.74
39275;BME280;24980;48.874;2.332;2023-02-21T06:51:05;101540.16;;;25.71;41.77
39275;BME280;24980;48.874;2.332;2023-02-21T06:53:40;101539.32;;;25.70;41.80
39275;BME280;24980;48.874;2.332;2023-02-21T06:56:04;101540.77;;;25.69;41.81
39275;BME280;24980;48.874;2.332;2023-02-21T06:58:34;101534.41;;;25.69;41.84
39275;BME280;24980;48.874;2.332;2023-02-21T07:01:04;101533.38;;;25.69;41.88
39275;BME280;24980;48.874;2.332;2023-02-21T07:03:38;101530.23;;;25.69;41.91
39275;BME280;24980;48.874;2.332;2023-02-21T07:06:05;101527.17;;;25.70;41.96
39275;BME280;24980;48.874;2.332;2023-02-21T07:08:36;101526.75;;;25.70;42.00
39275;BME280;24980;48.874;2.332;2023-02-21T07:11:07;101529.86;;;25.68;42.04
39275;BME280;24980;48.874;2.332;2023-02-21T07:13:38;101531.60;;;25.59;42.07
39275;BME280;24980;48.874;2.332;2023-02-21T07:16:07;101538.08;;;25.32;42.05
39275;BME280;24980;48.874;2.332;2023-02-21T07:18:41;101540.95;;;25.01;41.96
39275;BME280;24980;48.874;2.332;2023-02-21T07:21:11;101536.05;;;24.74;41.83
39275;BME280;24980;48.874;2.332;2023-02-21T07:23:38;101536.06;;;24.54;41.64
39275;BME280;24980;48.874;2.332;2023-02-21T07:26:08;101532.41;;;24.37;41.45
39275;BME280;24980;48.874;2.332;2023-02-21T07:28:41;101536.63;;;24.22;41.29
39275;BME280;24980;48.874;2.332;2023-02-21T07:31:09;101529.72;;;24.10;41.11
39275;BME280;24980;48.874;2.332;2023-02-21T07:33:40;101529.32;;;24.00;40.96
39275;BME280;24980;48.874;2.332;2023-02-21T07:36:11;101526.75;;;23.86;40.88
39275;BME280;24980;48.874;2.332;2023-02-21T07:38:44;101525.10;;;23.74;40.78
39275;BME280;24980;48.874;2.332;2023-02-21T07:41:13;101531.12;;;23.63;40.67
39275;BME280;24980;48.874;2.332;2023-02-21T07:43:44;101532.57;;;23.56;40.56
39275;BME280;24980;48.874;2.332;2023-02-21T07:46:15;101532.28;;;23.49;40.46
39275;BME280;24980;48.874;2.332;2023-02-21T07:48:45;101529.09;;;23.46;40.35
39275;BME280;24980;48.874;2.332;2023-02-21T07:51:14;101525.97;;;23.44;40.24
39275;BME280;24980;48.874;2.332;2023-02-21T07:53:45;101525.91;;;23.39;40.16
39275;BME280;24980;48.874;2.332;2023-02-21T07:56:16;101528.67;;;23.34;40.08
39275;BME280;24980;48.874;2.332;2023-02-21T07:58:46;101526.66;;;23.29;40.03
39275;BME280;24980;48.874;2.332;2023-02-21T08:01:22;101528.23;;;23.24;40.00
39275;BME280;24980;48.874;2.332;2023-02-21T08:03:49;101523.53;;;23.20;39.97
39275;BME280;24980;48.874;2.332;2023-02-21T08:06:18;101530.59;;;23.12;39.96
39275;BME280;24980;48.874;2.332;2023-02-21T08:08:50;101528.02;;;23.07;39.96
39275;BME280;24980;48.874;2.332;2023-02-21T08:11:19;101524.75;;;23.05;39.92
39275;BME280;24980;48.874;2.332;2023-02-21T08:13:49;101525.11;;;23.01;39.93
39275;BME280;24980;48.874;2.332;2023-02-21T08:16:21;101514.00;;;22.96;39.93
39275;BME280;24980;48.874;2.332;2023-02-21T08:18:51;101516.38;;;22.91;39.90
39275;BME280;24980;48.874;2.332;2023-02-21T08:21:20;101517.92;;;22.89;39.84
39275;BME280;24980;48.874;2.332;2023-02-21T08:23:54;101519.09;;;22.86;39.78
39275;BME280;24980;48.874;2.332;2023-02-21T08:26:21;101514.92;;;22.82;39.72
39275;BME280;24980;48.874;2.332;2023-02-21T08:28:51;101517.90;;;22.78;39.69
39275;BME280;24980;48.874;2.332;2023-02-21T08:31:21;101517.58;;;22.74;39.63
39275;BME280;24980;48.874;2.332;2023-02-21T08:33:52;101513.44;;;22.76;39.53
39275;BME280;24980;48.874;2.332;2023-02-21T08:36:33;101515.05;;;22.76;39.46
39275;BME280;24980;48.874;2.332;2023-02-21T08:38:53;101511.54;;;22.70;39.44
39275;BME280;24980;48.874;2.332;2023-02-21T08:41:41;101512.55;;;22.68;39.37
39275;BME280;24980;48.874;2.332;2023-02-21T08:43:53;101513.84;;;22.66;39.34
39275;BME280;24980;48.874;2.332;2023-02-21T08:46:24;101512.64;;;22.62;39.31
39275;BME280;24980;48.874;2.332;2023-02-21T08:48:54;101515.00;;;22.70;39.22
39275;BME280;24980;48.874;2.332;2023-02-21T08:51:25;101516.38;;;22.92;39.01
39275;BME280;24980;48.874;2.332;2023-02-21T08:53:56;101516.75;;;23.11;38.84
39275;BME280;24980;48.874;2.332;2023-02-21T08:56:29;101515.02;;;23.27;38.69
39275;BME280;24980;48.874;2.332;2023-02-21T08:58:57;101513.13;;;23.39;38.59
39275;BME280;24980;48.874;2.332;2023-02-21T09:01:33;101513.92;;;23.48;38.50
39275;BME280;24980;48.874;2.332;2023-02-21T09:03:58;101514.12;;;23.56;38.43
39275;BME280;24980;48.874;2.332;2023-02-21T09:06:29;101510.25;;;23.63;38.39
39275;BME280;24980;48.874;2.332;2023-02-21T09:08:59;101510.36;;;23.68;38.38
39275;BME280;24980;48.874;2.332;2023-02-21T09:11:30;101512.58;;;23.74;38.28
39275;BME280;24980;48.874;2.332;2023-02-21T09:14:03;101514.29;;;23.79;38.24
39275;BME280;24980;48.874;2.332;2023-02-21T09:16:33;101513.23;;;23.84;38.21
39275;BME280;24980;48.874;2.332;2023-02-21T09:19:03;101514.05;;;23.88;38.19
39275;BME280;24980;48.874;2.332;2023-02-21T09:21:33;101509.87;;;23.92;38.19
39275;BME280;24980;48.874;2.332;2023-02-21T09:24:04;101511.52;;;23.95;38.18
39275;BME280;24980;48.874;2.332;2023-02-21T09:26:34;101511.66;;;23.97;38.18
39275;BME280;24980;48.874;2.332;2023-02-21T09:29:08;101511.28;;;24.00;38.17
39275;BME280;24980;48.874;2.332;2023-02-21T09:31:35;101508.62;;;24.03;38.17
39275;BME280;24980;48.874;2.332;2023-02-21T09:34:08;101507.73;;;24.06;38.15
39275;BME280;24980;48.874;2.332;2023-02-21T09:36:37;101503.47;;;24.09;38.14
39275;BME280;24980;48.874;2.332;2023-02-21T09:39:08;101501.09;;;24.13;38.14
39275;BME280;24980;48.874;2.332;2023-02-21T09:41:39;101500.55;;;24.15;38.13
39275;BME280;24980;48.874;2.332;2023-02-21T09:44:19;101499.99;;;24.19;38.14
39275;BME280;24980;48.874;2.332;2023-02-21T09:46:41;101503.34;;;24.22;38.13
39275;BME280;24980;48.874;2.332;2023-02-21T09:49:33;101500.25;;;24.25;38.13
39275;BME280;24980;48.874;2.332;2023-02-21T09:51:40;101501.95;;;24.27;38.13
39275;BME280;24980;48.874;2.332;2023-02-21T09:56:40;101502.41;;;24.30;38.13
39275;BME280;24980;48.874;2.332;2023-02-21T09:59:12;101499.66;;;24.31;38.12
39275;BME280;24980;48.874;2.332;2023-02-21T10:01:56;101500.42;;;24.33;38.12
39275;BME280;24980;48.874;2.332;2023-02-21T10:09:40;101493.82;;;24.37;38.10
39275;BME280;24980;48.874;2.332;2023-02-21T10:12:13;101497.12;;;24.39;38.10
39275;BME280;24980;48.874;2.332;2023-02-21T10:14:36;101493.56;;;24.40;38.09
39275;BME280;24980;48.874;2.332;2023-02-21T10:16:55;101492.42;;;24.40;38.09
39275;BME280;24980;48.874;2.332;2023-02-21T10:19:29;101489.70;;;24.42;38.08
39275;BME280;24980;48.874;2.332;2023-02-21T10:21:48;101492.34;;;24.42;38.09
39275;BME280;24980;48.874;2.332;2023-02-21T10:24:21;101495.64;;;24.42;38.10
39275;BME280;24980;48.874;2.332;2023-02-21T10:27:11;101495.21;;;24.42;38.10
39275;BME280;24980;48.874;2.332;2023-02-21T10:29:23;101493.77;;;24.43;38.11
39275;BME280;24980;48.874;2.332;2023-02-21T10:31:54;101491.88;;;24.44;38.11
39275;BME280;24980;48.874;2.332;2023-02-21T10:34:21;101492.55;;;24.45;38.10
39275;BME280;24980;48.874;2.332;2023-02-21T10:36:49;101489.07;;;24.46;38.10
39275;BME280;24980;48.874;2.332;2023-02-21T10:39:23;101488.61;;;24.47;38.10
39275;BME280;24980;48.874;2.332;2023-02-21T10:41:50;101488.19;;;24.47;38.09
39275;BME280;24980;48.874;2.332;2023-02-21T10:44:28;101480.98;;;24.48;38.08
39275;BME280;24980;48.874;2.332;2023-02-21T10:52:06;101472.58;;;24.49;38.09
39275;BME280;24980;48.874;2.332;2023-02-21T10:54:26;101471.61;;;24.50;38.09
39275;BME280;24980;48.874;2.332;2023-02-21T10:56:52;101466.86;;;24.51;38.15
39275;BME280;24980;48.874;2.332;2023-02-21T10:59:34;101466.14;;;24.54;38.21
39275;BME280;24980;48.874;2.332;2023-02-21T11:01:54;101463.59;;;24.56;38.28
39275;BME280;24980;48.874;2.332;2023-02-21T11:04:26;101465.33;;;24.59;38.34
39275;BME280;24980;48.874;2.332;2023-02-21T11:07:00;101463.17;;;24.60;38.42
39275;BME280;24980;48.874;2.332;2023-02-21T11:09:32;101459.27;;;24.60;38.50
39275;BME280;24980;48.874;2.332;2023-02-21T11:12:17;101459.44;;;24.60;38.57
39275;BME280;24980;48.874;2.332;2023-02-21T11:14:28;101460.92;;;24.63;38.63
39275;BME280;24980;48.874;2.332;2023-02-21T11:17:04;101458.29;;;24.63;38.69
39275;BME280;24980;48.874;2.332;2023-02-21T11:19:27;101452.69;;;24.64;38.74
39275;BME280;24980;48.874;2.332;2023-02-21T11:21:58;101445.83;;;24.64;38.80
39275;BME280;24980;48.874;2.332;2023-02-21T11:24:28;101448.11;;;24.64;38.86
39275;BME280;24980;48.874;2.332;2023-02-21T11:26:59;101440.27;;;24.66;38.90
39275;BME280;24980;48.874;2.332;2023-02-21T11:29:30;101437.26;;;24.65;38.95
39275;BME280;24980;48.874;2.332;2023-02-21T11:32:11;101432.69;;;24.65;38.99
39275;BME280;24980;48.874;2.332;2023-02-21T11:34:32;101429.04;;;24.65;39.05
39275;BME280;24980;48.874;2.332;2023-02-21T11:37:03;101418.28;;;24.63;39.08
39275;BME280;24980;48.874;2.332;2023-02-21T11:39:33;101410.27;;;24.62;39.13
39275;BME280;24980;48.874;2.332;2023-02-21T11:42:22;101403.75;;;24.60;39.16
39275;BME280;24980;48.874;2.332;2023-02-21T11:44:37;101396.42;;;24.59;39.19
39275;BME280;24980;48.874;2.332;2023-02-21T11:47:10;101394.91;;;24.58;39.22
39275;BME280;24980;48.874;2.332;2023-02-21T11:49:47;101389.99;;;24.57;39.25
39275;BME280;24980;48.874;2.332;2023-02-21T11:52:10;101384.66;;;24.56;39.28
39275;BME280;24980;48.874;2.332;2023-02-21T11:54:38;101380.28;;;24.56;39.30
39275;BME280;24980;48.874;2.332;2023-02-21T11:57:33;101373.59;;;24.56;39.34
39275;BME280;24980;48.874;2.332;2023-02-21T11:59:45;101370.80;;;24.55;39.37
39275;BME280;24980;48.874;2.332;2023-02-21T12:02:39;101364.09;;;24.56;39.39
39275;BME280;24980;48.874;2.332;2023-02-21T12:07:32;101358.50;;;24.56;39.45
39275;BME280;24980;48.874;2.332;2023-02-21T12:14:56;101344.27;;;24.54;39.54
39275;BME280;24980;48.874;2.332;2023-02-21T12:20:02;101332.08;;;24.53;39.59
39275;BME280;24980;48.874;2.332;2023-02-21T12:25:01;101318.84;;;24.55;39.64
39275;BME280;24980;48.874;2.332;2023-02-21T12:27:25;101317.19;;;24.56;39.67
39275;BME280;24980;48.874;2.332;2023-02-21T12:30:02;101316.00;;;24.58;39.72
39275;BME280;24980;48.874;2.332;2023-02-21T12:34:57;101309.34;;;24.59;39.80
39275;BME280;24980;48.874;2.332;2023-02-21T12:40:10;101293.66;;;24.61;39.89
39275;BME280;24980;48.874;2.332;2023-02-21T12:42:33;101289.23;;;24.62;39.94
39275;BME280;24980;48.874;2.332;2023-02-21T12:47:45;101274.23;;;24.62;40.03
39275;BME280;24980;48.874;2.332;2023-02-21T12:55:00;101263.94;;;24.64;40.14
39275;BME280;24980;48.874;2.332;2023-02-21T12:57:35;101261.22;;;24.65;40.17
39275;BME280;24980;48.874;2.332;2023-02-21T13:00:11;101255.78;;;24.65;40.21
39275;BME280;24980;48.874;2.332;2023-02-21T13:02:49;101249.44;;;24.65;40.25
39275;BME280;24980;48.874;2.332;2023-02-21T13:05:08;101244.94;;;24.66;40.27
39275;BME280;24980;48.874;2.332;2023-02-21T13:07:31;101240.86;;;24.66;40.30
39275;BME280;24980;48.874;2.332;2023-02-21T13:10:14;101235.56;;;24.67;40.34
39275;BME280;24980;48.874;2.332;2023-02-21T13:12:28;101232.44;;;24.66;40.37
39275;BME280;24980;48.874;2.332;2023-02-21T13:14:57;101225.31;;;24.67;40.41
39275;BME280;24980;48.874;2.332;2023-02-21T13:17:25;101226.23;;;24.67;40.44
39275;BME280;24980;48.874;2.332;2023-02-21T13:20:04;101225.89;;;24.69;40.48
39275;BME280;24980;48.874;2.332;2023-02-21T13:25:06;101221.77;;;24.70;40.52
39275;BME280;24980;48.874;2.332;2023-02-21T13:27:43;101217.95;;;24.72;40.56
39275;BME280;24980;48.874;2.332;2023-02-21T13:30:21;101209.01;;;24.72;40.58
39275;BME280;24980;48.874;2.332;2023-02-21T13:32:35;101200.36;;;24.73;40.62
39275;BME280;24980;48.874;2.332;2023-02-21T13:35:00;101196.96;;;24.73;40.64
39275;BME280;24980;48.874;2.332;2023-02-21T13:37:31;101190.51;;;24.74;40.66
39275;BME280;24980;48.874;2.332;2023-02-21T13:40:05;101185.12;;;24.76;40.71
39275;BME280;24980;48.874;2.332;2023-02-21T13:42:35;101185.97;;;24.76;40.72
39275;BME280;24980;48.874;2.332;2023-02-21T13:45:23;101181.47;;;24.77;40.75
39275;BME280;24980;48.874;2.332;2023-02-21T13:52:49;101170.78;;;24.77;40.82
39275;BME280;24980;48.874;2.332;2023-02-21T13:57:35;101158.62;;;24.75;40.86
39275;BME280;24980;48.874;2.332;2023-02-21T14:02:34;101148.22;;;24.74;40.91
39275;BME280;24980;48.874;2.332;2023-02-21T14:05:05;101143.23;;;24.72;40.91
39275;BME280;24980;48.874;2.332;2023-02-21T14:07:46;101139.38;;;24.71;40.91
39275;BME280;24980;48.874;2.332;2023-02-21T14:10:29;101136.67;;;24.70;40.91
39275;BME280;24980;48.874;2.332;2023-02-21T14:12:36;101136.50;;;24.70;40.91
39275;BME280;24980;48.874;2.332;2023-02-21T14:15:07;101131.50;;;24.70;40.89
39275;BME280;24980;48.874;2.332;2023-02-21T14:17:38;101124.01;;;24.68;40.89
39275;BME280;24980;48.874;2.332;2023-02-21T14:20:15;101123.42;;;24.68;40.88